Flight Track Log - Related Links

Times and Time Zones

All times are in EDT time to prevent confusion due to time zone crossing. See the LBQ850 flight status page for this flight to view local times or setup timezone preferences in your user account.

Time Position Orientation Groundspeed Altitude Reporting Facility
EDT Latitude Longitude Course Direction KTS MPH feet Rate Location/Type
Fri 10:25:32 PM 30.7967 -87.9033 208° Southwest  Level FlightAware Approximate
Fri 10:26:06 PM 30.7439 -87.9358 31° Northeast 171 197 6,800  Level Houston Center
Fri 10:30:06 PM 30.9156 -87.8133 37° Northeast 183 211 7,000 40 Climbing Houston Center
Fri 10:31:06 PM 30.9564 -87.7781 35° Northeast 178 205 7,000  Level Houston Center
Fri 10:32:06 PM 30.9992 -87.7425 33° Northeast 178 205 7,000  Level Houston Center
Fri 10:33:05 PM 31.0461 -87.7067 34° Northeast 188 216 7,000  Level Houston Center
Fri 10:34:06 PM 31.0889 -87.6733 35° Northeast 188 216 7,000  Level Houston Center
Fri 10:35:06 PM 31.1317 -87.6378 33° Northeast 188 216 7,000  Level Houston Center
Fri 10:36:06 PM 31.1764 -87.6044 37° Northeast 193 222 7,000  Level Houston Center
Fri 10:37:06 PM 31.2172 -87.5689 34° Northeast 193 222 7,000  Level Houston Center
Fri 10:39:16 PM 31.3186 -87.4903 35° Northeast 188 216 7,000  Level Atlanta Center
Fri 10:40:16 PM 31.3614 -87.4556 31° Northeast 193 222 7,000  Level Atlanta Center
Fri 10:41:16 PM 31.4081 -87.4231 37° Northeast 193 222 7,000  Level Atlanta Center
Fri 10:42:16 PM 31.4508 -87.3858 34° Northeast 193 222 7,000  Level Atlanta Center
Fri 10:43:16 PM 31.4956 -87.3508 44° Northeast 193 222 7,000  Level Atlanta Center
Fri 10:44:16 PM 31.5344 -87.3061 60° Northeast 193 222 7,000  Level Atlanta Center
Fri 10:45:16 PM 31.5608 -87.2533 46° Northeast 186 214 7,000  Level Atlanta Center
Fri 10:46:16 PM 31.5975 -87.2083 51° Northeast 186 214 7,000  Level Atlanta Center
Fri 10:47:16 PM 31.6300 -87.1608 46° Northeast 186 214 7,000  Level Atlanta Center
Fri 10:48:16 PM 31.6667 -87.1156 51° Northeast 181 208 7,000  Level Atlanta Center
Fri 10:49:16 PM 31.7011 -87.0656 45° Northeast 187 215 7,000  Level Atlanta Center
Fri 10:50:16 PM 31.7378 -87.0228 50° Northeast 187 215 7,000  Level Atlanta Center
Fri 10:51:16 PM 31.7700 -86.9775 48° Northeast 187 215 7,000  Level Atlanta Center
Fri 10:52:16 PM 31.8047 -86.9322 48° Northeast 188 216 7,000  Level Atlanta Center
Fri 10:53:16 PM 31.8392 -86.8869 45° Northeast 188 216 7,000  Level Atlanta Center
Fri 10:54:16 PM 31.8733 -86.8464 50° Northeast 188 216 7,000  Level Atlanta Center
Fri 10:55:16 PM 31.9056 -86.8008 48° Northeast 183 211 7,000  Level Atlanta Center
Fri 10:56:16 PM 31.9422 -86.7531 52° Northeast 188 216 7,000  Level Atlanta Center
Fri 10:57:16 PM 31.9744 -86.7050 55° Northeast 183 211 7,000  Level Atlanta Center
Fri 10:58:16 PM 32.0050 -86.6544 52° Northeast 189 217 7,000  Level Atlanta Center
Fri 10:59:16 PM 32.0372 -86.6064 54° Northeast 189 217 7,000  Level Atlanta Center
Fri 11:08:40 PM 32.3386 -86.1186 47° Northeast 198 228 7,000  Level Atlanta Center
Fri 11:13:40 PM 32.5197 -85.8889 44° Northeast 182 209 7,000  Level Atlanta Center
Fri 11:14:40 PM 32.5578 -85.8453 42° Northeast 187 215 7,000  Level Atlanta Center
Fri 11:15:40 PM 32.5981 -85.8017 45° Northeast 193 222 7,000  Level Atlanta Center
Fri 11:16:40 PM 32.6386 -85.7531 46° Northeast 193 222 7,000  Level Atlanta Center
Fri 11:17:40 PM 32.6767 -85.7069 47° Northeast 200 230 7,000  Level Atlanta Center
Fri 11:18:40 PM 32.7150 -85.6583 42° Northeast 195 224 7,000  Level Atlanta Center
Fri 11:19:40 PM 32.7553 -85.6147 46° Northeast 195 224 7,000  Level Atlanta Center
Fri 11:20:40 PM 32.7933 -85.5683 48° Northeast 200 230 7,000  Level Atlanta Center
Fri 11:21:40 PM 32.8314 -85.5172 46° Northeast 195 224 7,000  Level Atlanta Center
Fri 11:22:40 PM 32.8675 -85.4733 49° Northeast 195 224 7,000  Level Atlanta Center
Fri 11:23:40 PM 32.9056 -85.4219 46° Northeast 195 224 7,000  Level Atlanta Center
Fri 11:24:40 PM 32.9436 -85.3756 49° Northeast 190 219 7,000  Level Atlanta Center
Fri 11:25:40 PM 32.9756 -85.3314 49° Northeast 190 219 7,000  Level Atlanta Center
Fri 11:26:40 PM 33.0136 -85.2800 49° Northeast 195 224 7,000  Level Atlanta Center
Fri 11:27:40 PM 33.0497 -85.2308 53° Northeast 195 224 7,000  Level Atlanta Center
Fri 11:28:40 PM 33.0836 -85.1767 48° Northeast 195 224 7,000  Level Atlanta Center
Fri 11:29:40 PM 33.1236 -85.1228 52° Northeast 195 224 7,000  Level Atlanta Center
Fri 11:30:40 PM 33.1575 -85.0711 49° Northeast 195 224 7,000  Level Atlanta Center
Fri 11:31:40 PM 33.1933 -85.0219 50° Northeast 201 231 7,000  Level Atlanta Center
Fri 11:32:40 PM 33.2292 -84.9700 52° Northeast 196 226 7,000  Level Atlanta Center
Fri 11:33:40 PM 33.2631 -84.9183 50° Northeast 196 226 7,000  Level Atlanta Center
Fri 11:34:40 PM 33.2989 -84.8664 49° Northeast 204 235 7,000  Level Atlanta Center
Fri 11:35:40 PM 33.3347 -84.8169 69° East 199 229 7,000  Level Atlanta Center
Fri 11:37:59 PM 33.3833 -84.6667 90° East 202 232 7,000  Level Atlanta TRACON
Fri 11:38:53 PM 33.3833 -84.6167 59° Northeast 201 231 7,000  Level Atlanta TRACON
Fri 11:39:53 PM 33.4167 -84.5500 40° Northeast 200 230 7,000  Level Atlanta TRACON
Fri 11:41:53 PM 33.5000 -84.4667 40° Northeast 202 232 7,000 -207 Level Atlanta TRACON
Fri 11:42:47 PM 33.5333 -84.4333 40° Northeast 216 249 6,400 -833 Descending Atlanta TRACON
Fri 11:43:41 PM 33.5833 -84.3833 40° Northeast 231 266 5,500 -875 Descending Atlanta TRACON
Fri 11:44:23 PM 33.6167 -84.3500 40° Northeast 226 260 5,000 -294 Descending Atlanta TRACON
Fri 11:45:23 PM 33.6667 -84.3000 40° Northeast 207 238 5,000  Level Atlanta TRACON
Fri 11:46:29 PM 33.7167 -84.2500 40° Northeast 205 236 5,000  Level Atlanta TRACON
Fri 11:47:23 PM 33.7500 -84.2167 40° Northeast 205 236 5,000  Level Atlanta TRACON
Fri 11:48:23 PM 33.8000 -84.1667 40° Northeast 204 235 5,000  Level Atlanta TRACON

Login

Don't have an account? Register now (free) for customized features, flight alerts, and more!